createdAt,value
2023-06-19T00:00:31.445Z,19.15
2023-06-19T00:03:15.070Z,19.03
2023-06-19T00:05:58.746Z,18.97
2023-06-19T00:08:42.678Z,19.02
2023-06-19T00:11:26.276Z,19.11
2023-06-19T00:14:09.906Z,19.06
2023-06-19T00:16:53.453Z,18.89
2023-06-19T00:19:37.593Z,19.07
2023-06-19T00:22:21.593Z,19.18
2023-06-19T00:25:05.564Z,18.98
2023-06-19T00:27:49.281Z,18.84
2023-06-19T00:30:33.930Z,19.09
2023-06-19T00:33:17.640Z,19.07
2023-06-19T00:36:02.584Z,18.93
2023-06-19T00:38:46.222Z,19.06
2023-06-19T00:41:32.144Z,19.13
2023-06-19T00:44:16.074Z,19.06
2023-06-19T00:47:03.805Z,19.14
2023-06-19T00:49:47.458Z,19.36
2023-06-19T00:52:31.102Z,19.53
2023-06-19T00:55:17.251Z,19.42
2023-06-19T00:58:02.915Z,19.45
2023-06-19T01:00:56.050Z,19.46
2023-06-19T01:03:48.768Z,19.58
2023-06-19T01:06:59.815Z,19.30
2023-06-19T01:09:52.525Z,19.39
2023-06-19T01:12:41.652Z,19.50
2023-06-19T01:15:27.230Z,19.48
2023-06-19T01:18:12.681Z,19.53
2023-06-19T01:20:56.541Z,19.51
2023-06-19T01:23:41.299Z,19.46
2023-06-19T01:26:29.194Z,19.34
2023-06-19T01:29:17.494Z,19.28
2023-06-19T01:32:19.200Z,19.04
2023-06-19T01:35:05.444Z,19.25
2023-06-19T01:37:51.457Z,19.22
2023-06-19T01:40:36.641Z,19.03
2023-06-19T01:43:21.109Z,18.86
2023-06-19T01:46:05.363Z,19.02
2023-06-19T01:48:49.200Z,18.85
2023-06-19T01:51:32.976Z,18.83
2023-06-19T01:54:17.932Z,18.93
2023-06-19T01:57:01.749Z,18.96
2023-06-19T01:59:45.377Z,18.92
2023-06-19T02:02:29.059Z,18.73
2023-06-19T02:05:12.842Z,18.94
2023-06-19T02:07:56.451Z,18.99
2023-06-19T02:10:40.137Z,19.09
2023-06-19T02:13:23.886Z,19.19
2023-06-19T02:16:07.674Z,19.11
2023-06-19T02:18:51.413Z,19.12
2023-06-19T02:21:35.027Z,18.95
2023-06-19T02:24:18.782Z,19.11
2023-06-19T02:27:03.428Z,19.07
2023-06-19T02:29:47.042Z,18.96
2023-06-19T02:32:30.709Z,18.81
2023-06-19T02:35:16.648Z,18.78
2023-06-19T02:38:00.349Z,18.77
2023-06-19T02:40:44.021Z,18.60
2023-06-19T02:43:27.969Z,18.79
2023-06-19T02:46:13.453Z,18.69
2023-06-19T02:48:58.561Z,18.61
2023-06-19T02:51:42.625Z,18.55
2023-06-19T02:54:26.289Z,18.54
2023-06-19T02:57:10.348Z,18.59
2023-06-19T02:59:54.199Z,18.68
2023-06-19T03:02:37.963Z,18.62
2023-06-19T03:05:21.756Z,18.63
2023-06-19T03:08:05.761Z,18.73
2023-06-19T03:10:49.366Z,18.69
2023-06-19T03:13:57.437Z,18.73
2023-06-19T03:16:41.126Z,18.71
2023-06-19T03:19:24.952Z,18.77
2023-06-19T03:22:08.615Z,18.85
2023-06-19T03:24:53.194Z,18.78
2023-06-19T03:27:39.263Z,18.71
2023-06-19T03:30:23.947Z,18.85
2023-06-19T03:33:09.320Z,18.75
2023-06-19T03:35:58.739Z,18.78
2023-06-19T03:38:56.732Z,18.53
2023-06-19T03:41:44.077Z,18.91
2023-06-19T03:44:27.763Z,19.11
2023-06-19T03:47:11.391Z,19.20
2023-06-19T03:49:55.964Z,19.03
2023-06-19T03:52:39.684Z,18.78
2023-06-19T03:55:23.308Z,18.83
2023-06-19T03:58:07.417Z,18.87
2023-06-19T04:00:51.055Z,19.28
2023-06-19T04:03:35.707Z,19.13
2023-06-19T04:06:19.612Z,19.13
2023-06-19T04:09:03.856Z,19.39
2023-06-19T04:11:47.804Z,18.72
2023-06-19T04:14:31.431Z,19.10
2023-06-19T04:17:16.869Z,19.36
2023-06-19T04:20:00.469Z,19.25
2023-06-19T04:22:44.088Z,19.03
2023-06-19T04:25:28.223Z,19.03
2023-06-19T04:28:13.761Z,19.18
2023-06-19T04:31:01.576Z,19.34
2023-06-19T04:33:47.250Z,19.35
2023-06-19T04:36:32.976Z,19.40
2023-06-19T04:39:17.296Z,19.46
2023-06-19T04:42:01.586Z,19.63
2023-06-19T04:44:45.165Z,19.86
2023-06-19T04:47:39.754Z,19.74
2023-06-19T04:50:27.740Z,19.99
2023-06-19T04:53:11.520Z,19.95
2023-06-19T04:55:56.453Z,20.21
2023-06-19T04:58:46.957Z,20.13
2023-06-19T05:01:33.382Z,19.91
2023-06-19T05:04:17.134Z,20.06
2023-06-19T05:07:01.094Z,19.78
2023-06-19T05:09:44.728Z,20.21
2023-06-19T05:12:28.305Z,20.14
2023-06-19T05:15:12.352Z,20.35
2023-06-19T05:17:56.129Z,20.45
2023-06-19T05:20:39.983Z,20.49
2023-06-19T05:23:23.720Z,20.24
2023-06-19T05:26:07.683Z,20.40
2023-06-19T05:28:51.330Z,20.48
2023-06-19T05:31:34.904Z,20.72
2023-06-19T05:34:18.762Z,20.77
2023-06-19T05:37:04.853Z,20.87
2023-06-19T05:39:51.132Z,21.06
2023-06-19T05:42:34.827Z,20.94
2023-06-19T05:45:18.582Z,20.92
2023-06-19T05:48:02.451Z,20.99
2023-06-19T05:50:46.119Z,21.14
2023-06-19T05:53:30.186Z,21.20
2023-06-19T05:56:14.053Z,21.03
2023-06-19T05:58:57.768Z,21.16
2023-06-19T06:01:41.538Z,21.12
2023-06-19T06:04:25.373Z,21.03
2023-06-19T06:07:09.857Z,21.00
2023-06-19T06:09:53.544Z,20.89
2023-06-19T06:12:37.221Z,20.93
2023-06-19T06:15:21.531Z,20.92
2023-06-19T06:18:05.736Z,21.03
2023-06-19T06:20:49.471Z,20.91
2023-06-19T06:23:33.179Z,21.32
2023-06-19T06:26:16.837Z,21.43
2023-06-19T06:29:00.443Z,21.40
2023-06-19T06:31:48.232Z,21.36
2023-06-19T06:34:31.910Z,21.56
2023-06-19T06:37:17.394Z,21.51
2023-06-19T06:40:01.044Z,21.55
2023-06-19T06:42:45.209Z,21.68
2023-06-19T06:45:29.012Z,21.70
2023-06-19T06:48:15.344Z,21.71
2023-06-19T06:51:02.567Z,22.03
2023-06-19T06:53:46.356Z,22.17
2023-06-19T06:56:30.764Z,22.11
2023-06-19T06:59:14.632Z,22.04
2023-06-19T07:01:58.631Z,22.46
2023-06-19T07:04:42.381Z,21.98
2023-06-19T07:07:26.001Z,22.35
2023-06-19T07:10:10.794Z,22.35
2023-06-19T07:12:54.454Z,22.75
2023-06-19T07:15:38.083Z,22.71
2023-06-19T07:18:21.768Z,22.82
2023-06-19T07:21:15.669Z,22.97
2023-06-19T07:24:00.852Z,23.00
2023-06-19T07:26:44.589Z,23.04
2023-06-19T07:29:28.528Z,22.98
2023-06-19T07:32:12.128Z,23.08
2023-06-19T07:34:55.937Z,23.23
2023-06-19T07:37:39.606Z,23.33
2023-06-19T07:40:23.452Z,23.48
2023-06-19T07:43:07.261Z,23.67
2023-06-19T07:45:51.479Z,23.56
2023-06-19T07:48:35.134Z,23.66
2023-06-19T07:51:18.997Z,23.81
2023-06-19T07:54:03.325Z,23.84
2023-06-19T07:56:47.033Z,24.22
2023-06-19T07:59:30.629Z,24.13
2023-06-19T08:02:14.400Z,24.45
2023-06-19T08:04:58.122Z,24.44
2023-06-19T08:07:42.039Z,24.61
2023-06-19T08:10:26.112Z,24.38
2023-06-19T08:13:12.700Z,24.51
2023-06-19T08:15:56.393Z,24.76
2023-06-19T08:18:40.060Z,24.85
2023-06-19T08:21:23.701Z,24.60
2023-06-19T08:24:07.868Z,24.98
2023-06-19T08:26:52.365Z,25.03
2023-06-19T08:29:36.081Z,25.12
2023-06-19T08:32:20.166Z,25.32
2023-06-19T08:35:04.407Z,25.26
2023-06-19T08:37:48.246Z,25.23
2023-06-19T08:40:31.810Z,24.99
2023-06-19T08:43:15.539Z,25.20
2023-06-19T08:46:12.586Z,24.75
2023-06-19T08:48:57.478Z,24.61
2023-06-19T08:51:42.049Z,25.07
2023-06-19T08:54:28.927Z,25.39
2023-06-19T08:57:13.678Z,25.12
2023-06-19T08:59:57.446Z,25.35
2023-06-19T09:02:44.805Z,25.59
2023-06-19T09:05:29.007Z,25.46
2023-06-19T09:08:15.035Z,25.67
2023-06-19T09:11:04.397Z,25.71
2023-06-19T09:13:58.862Z,25.65
2023-06-19T09:16:43.417Z,25.83
2023-06-19T09:19:27.090Z,25.87
2023-06-19T09:22:10.718Z,25.89
2023-06-19T09:24:54.435Z,26.22
2023-06-19T09:27:38.388Z,25.61
2023-06-19T09:30:22.474Z,25.83
2023-06-19T09:33:09.868Z,25.87
2023-06-19T09:35:57.039Z,25.99
2023-06-19T09:38:42.238Z,25.77
2023-06-19T09:41:37.618Z,26.04
2023-06-19T09:44:25.229Z,26.17
2023-06-19T09:47:33.886Z,25.98
2023-06-19T09:50:19.089Z,26.00
2023-06-19T09:53:06.298Z,26.13
2023-06-19T09:55:54.015Z,26.44
2023-06-19T09:58:39.115Z,26.55
2023-06-19T10:01:25.474Z,26.58
2023-06-19T10:04:12.482Z,26.57
2023-06-19T10:06:58.724Z,26.10
2023-06-19T10:09:42.370Z,26.25
2023-06-19T10:12:47.512Z,25.67
2023-06-19T10:15:34.149Z,25.86
2023-06-19T10:18:19.715Z,26.35
2023-06-19T10:21:03.429Z,26.70
2023-06-19T10:23:57.496Z,26.79
2023-06-19T10:26:41.261Z,26.55
2023-06-19T10:29:25.033Z,26.86
2023-06-19T10:32:09.110Z,27.02
2023-06-19T10:34:52.755Z,27.10
2023-06-19T10:37:36.438Z,27.06
2023-06-19T10:40:20.211Z,26.87
2023-06-19T10:43:05.556Z,27.30
2023-06-19T10:45:49.235Z,27.34
2023-06-19T10:48:33.670Z,27.06
2023-06-19T10:51:24.303Z,26.80
2023-06-19T10:54:09.070Z,27.02
2023-06-19T10:56:52.901Z,27.19
2023-06-19T10:59:36.790Z,27.64
2023-06-19T11:02:20.435Z,27.77
2023-06-19T11:05:04.553Z,27.78
2023-06-19T11:08:01.273Z,27.80
2023-06-19T11:10:44.926Z,28.08
2023-06-19T11:13:28.564Z,28.24
2023-06-19T11:16:12.345Z,28.62
2023-06-19T11:19:00.240Z,28.55
2023-06-19T11:21:50.080Z,28.82
2023-06-19T11:24:33.827Z,28.84
2023-06-19T11:27:28.178Z,29.14
2023-06-19T11:30:12.161Z,28.90
2023-06-19T11:32:55.869Z,28.54
2023-06-19T11:35:40.527Z,28.29
2023-06-19T11:38:27.322Z,28.18
2023-06-19T11:41:11.642Z,28.21
2023-06-19T11:44:02.105Z,28.35
2023-06-19T11:46:45.869Z,28.20
2023-06-19T11:49:36.228Z,27.83
2023-06-19T11:52:19.940Z,27.70
2023-06-19T11:55:04.871Z,27.68
2023-06-19T11:57:48.613Z,28.20
2023-06-19T12:00:32.215Z,28.42
2023-06-19T12:03:16.894Z,28.29
2023-06-19T12:06:00.630Z,28.24
2023-06-19T12:08:44.292Z,28.51
2023-06-19T12:11:27.917Z,28.77
2023-06-19T12:14:11.538Z,28.65
2023-06-19T12:16:55.187Z,28.85
2023-06-19T12:19:39.226Z,29.48
2023-06-19T12:22:22.874Z,29.53
2023-06-19T12:25:06.844Z,29.87
2023-06-19T12:27:53.967Z,30.10
2023-06-19T12:30:38.963Z,30.60
2023-06-19T12:33:22.656Z,30.63
2023-06-19T12:36:06.736Z,31.31
2023-06-19T12:38:50.608Z,31.30
2023-06-19T12:41:34.283Z,30.80
2023-06-19T12:44:18.463Z,30.97
2023-06-19T12:47:02.229Z,30.61
2023-06-19T12:49:45.902Z,30.75
2023-06-19T12:52:29.592Z,30.41
2023-06-19T12:55:13.229Z,30.80
2023-06-19T12:57:56.884Z,31.02
2023-06-19T13:00:40.441Z,31.39
2023-06-19T13:03:24.282Z,31.29
2023-06-19T13:06:08.039Z,31.32
2023-06-19T13:08:51.965Z,30.77
2023-06-19T13:11:35.779Z,30.94
2023-06-19T13:14:19.417Z,30.59
2023-06-19T13:17:03.200Z,31.00
2023-06-19T13:19:46.899Z,30.86
2023-06-19T13:22:31.413Z,31.22
2023-06-19T13:25:15.057Z,31.30
2023-06-19T13:27:58.645Z,31.86
2023-06-19T13:30:42.523Z,32.03
2023-06-19T13:33:27.036Z,31.37
2023-06-19T13:36:10.708Z,31.31
2023-06-19T13:38:54.633Z,31.32
2023-06-19T13:41:38.326Z,31.64
2023-06-19T13:44:21.883Z,31.63
2023-06-19T13:47:06.449Z,32.03
2023-06-19T13:49:50.107Z,32.15
2023-06-19T13:52:33.718Z,31.08
2023-06-19T13:55:17.925Z,31.69
2023-06-19T13:58:01.608Z,32.08
2023-06-19T14:00:45.194Z,32.05
2023-06-19T14:03:29.023Z,31.53
2023-06-19T14:06:13.771Z,31.41
2023-06-19T14:08:57.703Z,31.28
2023-06-19T14:11:41.438Z,31.21
2023-06-19T14:14:25.164Z,31.11
2023-06-19T14:17:08.854Z,31.22
2023-06-19T14:19:52.936Z,31.28
2023-06-19T14:22:36.584Z,31.80
2023-06-19T14:25:20.444Z,31.63
2023-06-19T14:28:05.992Z,31.79
2023-06-19T14:30:49.721Z,31.33
2023-06-19T14:33:34.342Z,31.69
2023-06-19T14:36:17.929Z,31.51
2023-06-19T14:39:01.897Z,31.28
2023-06-19T14:41:45.508Z,31.47
2023-06-19T14:44:29.113Z,31.67
2023-06-19T14:47:12.869Z,31.45
2023-06-19T14:49:56.520Z,31.68
2023-06-19T14:52:40.300Z,31.73
2023-06-19T14:55:24.048Z,32.03
2023-06-19T14:58:07.628Z,32.02
2023-06-19T15:00:51.441Z,31.89
2023-06-19T15:03:36.006Z,31.81
2023-06-19T15:06:19.808Z,31.98
2023-06-19T15:09:05.489Z,32.37
2023-06-19T15:11:49.347Z,32.59
2023-06-19T15:14:34.541Z,30.82
2023-06-19T15:17:18.265Z,31.56
2023-06-19T15:20:01.997Z,32.19
2023-06-19T15:22:45.856Z,32.24
2023-06-19T15:25:29.453Z,32.12
2023-06-19T15:28:13.234Z,32.38
2023-06-19T15:30:56.871Z,32.04
2023-06-19T15:33:40.778Z,32.32
2023-06-19T15:36:24.639Z,31.97
2023-06-19T15:39:08.279Z,32.54
2023-06-19T15:41:51.875Z,32.11
2023-06-19T15:44:35.506Z,31.99
2023-06-19T15:47:19.646Z,32.06
2023-06-19T15:50:05.071Z,31.68
2023-06-19T15:52:48.713Z,31.61
2023-06-19T15:55:32.462Z,31.99
2023-06-19T15:58:18.536Z,31.53
2023-06-19T16:01:02.386Z,31.77
2023-06-19T16:03:46.187Z,32.04
2023-06-19T16:06:29.881Z,31.90
2023-06-19T16:09:13.481Z,31.79
2023-06-19T16:11:57.123Z,31.92
2023-06-19T16:14:40.949Z,31.72
2023-06-19T16:17:24.793Z,31.83
2023-06-19T16:20:09.903Z,31.72
2023-06-19T16:22:53.738Z,31.32
2023-06-19T16:25:37.419Z,31.69
2023-06-19T16:28:21.019Z,31.86
2023-06-19T16:31:04.780Z,31.89
2023-06-19T16:33:48.394Z,31.93
2023-06-19T16:36:32.195Z,32.06
2023-06-19T16:39:18.524Z,31.50
2023-06-19T16:42:02.352Z,31.35
2023-06-19T16:44:48.349Z,31.74
2023-06-19T16:47:31.967Z,31.68
2023-06-19T16:50:15.811Z,31.90
2023-06-19T16:53:00.134Z,31.61
2023-06-19T16:55:43.984Z,31.46
2023-06-19T16:58:27.786Z,31.41
2023-06-19T17:01:13.164Z,31.45
2023-06-19T17:03:57.087Z,31.05
2023-06-19T17:06:40.682Z,31.21
2023-06-19T17:09:24.282Z,30.60
2023-06-19T17:12:08.258Z,30.80
2023-06-19T17:14:52.225Z,30.87
2023-06-19T17:17:36.664Z,31.00
2023-06-19T17:20:20.331Z,30.79
2023-06-19T17:23:03.953Z,30.91
2023-06-19T17:25:47.525Z,30.63
2023-06-19T17:28:31.142Z,30.80
2023-06-19T17:31:14.797Z,30.42
2023-06-19T17:33:58.436Z,30.70
2023-06-19T17:36:42.010Z,30.48
2023-06-19T17:39:25.704Z,30.73
2023-06-19T17:42:09.576Z,30.58
2023-06-19T17:44:53.229Z,30.68
2023-06-19T17:47:36.910Z,30.39
2023-06-19T17:50:21.039Z,30.40
2023-06-19T17:53:05.942Z,30.32
2023-06-19T17:55:49.518Z,30.48
2023-06-19T17:58:33.171Z,30.43
2023-06-19T18:01:16.789Z,30.30
2023-06-19T18:04:00.622Z,30.29
2023-06-19T18:06:44.470Z,30.22
2023-06-19T18:09:28.171Z,30.11
2023-06-19T18:12:13.466Z,29.84
2023-06-19T18:14:57.059Z,30.11
2023-06-19T18:17:43.183Z,30.03
2023-06-19T18:20:27.289Z,30.11
2023-06-19T18:23:11.346Z,29.71
2023-06-19T18:25:54.945Z,29.94
2023-06-19T18:28:38.560Z,30.13
2023-06-19T18:31:22.160Z,29.98
2023-06-19T18:34:05.912Z,29.95
2023-06-19T18:36:52.709Z,29.62
2023-06-19T18:39:38.601Z,29.49
2023-06-19T18:42:22.444Z,29.61
2023-06-19T18:45:07.486Z,29.44
2023-06-19T18:47:51.281Z,29.27
2023-06-19T18:50:34.971Z,29.31
2023-06-19T18:53:18.685Z,29.13
2023-06-19T18:56:02.427Z,29.11
2023-06-19T18:58:46.899Z,29.05
2023-06-19T19:01:31.309Z,29.14
2023-06-19T19:04:15.173Z,29.16
2023-06-19T19:06:58.827Z,29.14
2023-06-19T19:09:42.486Z,28.89
2023-06-19T19:12:26.092Z,28.74
2023-06-19T19:15:10.104Z,28.72
2023-06-19T19:17:53.782Z,28.21
2023-06-19T19:20:37.453Z,28.23
2023-06-19T19:23:21.076Z,28.02
2023-06-19T19:26:06.214Z,27.78
2023-06-19T19:28:50.197Z,27.78
2023-06-19T19:31:33.946Z,27.36
2023-06-19T19:34:22.208Z,27.44
2023-06-19T19:37:07.559Z,27.24
2023-06-19T19:39:51.207Z,27.57
2023-06-19T19:42:34.775Z,27.48
2023-06-19T19:45:18.500Z,27.17
2023-06-19T19:48:02.165Z,27.02
2023-06-19T19:50:45.844Z,27.01
2023-06-19T19:53:29.428Z,27.10
2023-06-19T19:56:13.141Z,27.00
2023-06-19T19:58:57.110Z,26.94
2023-06-19T20:01:40.732Z,26.96
2023-06-19T20:04:24.793Z,27.16
2023-06-19T20:07:08.521Z,26.92
2023-06-19T20:09:52.151Z,26.88
2023-06-19T20:12:35.935Z,26.87
2023-06-19T20:15:19.994Z,26.92
2023-06-19T20:18:03.717Z,26.77
2023-06-19T20:20:47.428Z,26.79
2023-06-19T20:23:31.160Z,26.60
2023-06-19T20:26:15.261Z,26.51
2023-06-19T20:29:00.415Z,26.25
2023-06-19T20:31:44.044Z,26.28
2023-06-19T20:34:28.472Z,26.18
2023-06-19T20:37:12.146Z,26.12
2023-06-19T20:39:55.779Z,26.08
2023-06-19T20:42:39.412Z,25.95
2023-06-19T20:45:25.682Z,25.93
2023-06-19T20:48:09.380Z,25.86
2023-06-19T20:50:54.326Z,25.81
2023-06-19T20:53:37.903Z,25.74
2023-06-19T20:56:21.545Z,25.56
2023-06-19T20:59:05.352Z,25.48
2023-06-19T21:01:49.019Z,25.37
2023-06-19T21:04:33.022Z,25.32
2023-06-19T21:07:16.655Z,25.15
2023-06-19T21:10:00.423Z,25.15
2023-06-19T21:12:44.088Z,25.08
2023-06-19T21:15:27.704Z,25.16
2023-06-19T21:18:11.337Z,25.11
2023-06-19T21:20:57.080Z,25.13
2023-06-19T21:23:40.743Z,25.05
2023-06-19T21:26:24.564Z,24.86
2023-06-19T21:29:08.260Z,24.86
2023-06-19T21:31:51.949Z,24.76
2023-06-19T21:34:35.558Z,24.70
2023-06-19T21:37:19.203Z,24.54
2023-06-19T21:40:04.695Z,24.65
2023-06-19T21:42:48.292Z,24.49
2023-06-19T21:45:31.896Z,24.43
2023-06-19T21:48:15.578Z,24.35
2023-06-19T21:50:59.161Z,24.40
2023-06-19T21:53:42.844Z,24.29
2023-06-19T21:56:26.439Z,24.30
2023-06-19T21:59:10.105Z,24.19
2023-06-19T22:01:53.733Z,24.02
2023-06-19T22:04:38.220Z,24.03
2023-06-19T22:07:21.881Z,23.99
2023-06-19T22:10:06.150Z,23.95
2023-06-19T22:12:49.866Z,23.92
2023-06-19T22:15:33.438Z,23.85
2023-06-19T22:18:19.334Z,23.83
2023-06-19T22:21:02.942Z,23.78
2023-06-19T22:23:46.566Z,23.84
2023-06-19T22:26:32.833Z,23.79
2023-06-19T22:29:16.538Z,23.73
2023-06-19T22:32:00.750Z,23.65
2023-06-19T22:34:44.318Z,23.60
2023-06-19T22:37:27.894Z,23.51
2023-06-19T22:40:12.104Z,23.50
2023-06-19T22:42:55.737Z,23.37
2023-06-19T22:45:39.397Z,23.34
2023-06-19T22:48:23.131Z,23.39
2023-06-19T22:51:06.772Z,23.29
2023-06-19T22:53:51.080Z,23.28
2023-06-19T22:56:34.677Z,23.19
2023-06-19T22:59:18.503Z,23.11
2023-06-19T23:02:02.204Z,23.22
2023-06-19T23:04:46.172Z,22.97
2023-06-19T23:07:32.672Z,23.08
2023-06-19T23:10:16.314Z,22.95
2023-06-19T23:12:59.902Z,22.87
2023-06-19T23:15:43.462Z,22.84
2023-06-19T23:18:27.039Z,22.84
2023-06-19T23:21:10.817Z,22.80
2023-06-19T23:23:54.456Z,22.93
2023-06-19T23:26:38.318Z,22.91
2023-06-19T23:29:21.935Z,22.85
2023-06-19T23:32:06.517Z,22.78
2023-06-19T23:34:50.220Z,22.70
2023-06-19T23:37:33.975Z,22.71
2023-06-19T23:40:17.871Z,22.62
2023-06-19T23:43:01.471Z,22.73
2023-06-19T23:45:46.234Z,22.78
2023-06-19T23:48:30.326Z,22.72
2023-06-19T23:51:14.187Z,22.68
2023-06-19T23:53:57.817Z,22.71
2023-06-19T23:56:41.421Z,22.71
2023-06-19T23:59:25.207Z,22.76
